Terminal Aerodrome Forecast
Issued by NWS Louisville, KY

Home | Current Version | Previous Version | Text Only | Print | Product List | Glossary On
Versions: 1 2 3 4 5 6 7 8 9 10 11 12 13 14 15
000
FTUS43 KLMK 220533
TAFBWG
TAF
KBWG 220533Z 2206/2306 05008KT 3SM -SHRA OVC008
     FM220800 07006KT 4SM -SHRA OVC008 WS020/21040KT
      TEMPO 2208/2211 1SM SHRA OVC004
     FM221100 03006KT 4SM -SHRA OVC008
     FM221800 05005KT P6SM VCSH OVC015
     FM230300 14004KT 3SM -SHRA OVC003=

USA.gov is the U.S. government's official web portal to all federal, state and local government web resources and services.